Time;durP1;ratioP1;P1;durP2;ratioP2;P2;SDS_P1;SDS_P2;PMS_P1;PMS_P2;Temp;Humidity;BMP_temperature;BMP_pressure;BME280_temperature;BME280_humidity;BME280_pressure;Samples;Min_cycle;Max_cycle;Signal;HPM_P1;HPM_P2
2021/01/29 00:00:09;;;;;;;36.90;21.45;;;2.00;97.80;;;;;;5134674;27;20070;-60
2021/01/29 00:02:34;;;;;;;36.30;19.67;;;2.00;98.00;;;;;;5134543;27;20043;-60
2021/01/29 00:05:00;;;;;;;37.50;19.65;;;2.00;98.00;;;;;;5134140;27;20051;-60
2021/01/29 00:07:26;;;;;;;40.72;20.25;;;2.00;98.10;;;;;;5134416;27;20043;-60
2021/01/29 00:09:54;;;;;;;40.17;20.98;;;2.00;98.20;;;;;;5134381;27;20922;-60
2021/01/29 00:12:20;;;;;;;37.72;19.65;;;2.00;98.20;;;;;;5134555;27;20143;-60
2021/01/29 00:14:46;;;;;;;39.28;21.50;;;2.00;98.40;;;;;;5134424;27;20039;-59
2021/01/29 00:17:12;;;;;;;46.47;22.92;;;2.00;98.30;;;;;;5134468;27;20070;-59
2021/01/29 00:19:38;;;;;;;41.38;22.38;;;2.00;98.50;;;;;;5134170;27;20041;-60
2021/01/29 00:22:03;;;;;;;42.95;21.98;;;2.00;98.80;;;;;;5134109;27;20116;-59
2021/01/29 00:24:29;;;;;;;38.10;20.42;;;2.00;98.50;;;;;;5134075;27;20047;-60
2021/01/29 00:26:55;;;;;;;40.58;21.88;;;2.00;98.50;;;;;;5134000;27;20488;-59
2021/01/29 00:29:20;;;;;;;39.90;22.02;;;2.00;98.60;;;;;;5134041;27;20366;-59
2021/01/29 00:31:46;;;;;;;39.25;21.30;;;2.00;98.70;;;;;;5133760;27;20039;-59
2021/01/29 00:34:12;;;;;;;42.92;21.63;;;2.00;98.70;;;;;;5133737;27;20119;-59
2021/01/29 00:36:37;;;;;;;44.05;23.48;;;1.90;98.80;;;;;;5133904;27;20039;-60
2021/01/29 00:39:03;;;;;;;43.45;22.08;;;1.90;98.70;;;;;;5132852;27;20046;-59
2021/01/29 00:41:29;;;;;;;45.78;23.13;;;1.90;99.00;;;;;;5133440;27;20051;-60
2021/01/29 00:43:56;;;;;;;46.15;22.23;;;1.90;99.00;;;;;;5133243;27;20055;-60
2021/01/29 00:46:22;;;;;;;46.92;23.23;;;1.90;99.10;;;;;;5132962;27;20046;-60
2021/01/29 00:48:48;;;;;;;49.42;25.02;;;1.90;99.10;;;;;;5133205;27;20043;-60
2021/01/29 00:51:15;;;;;;;48.75;24.17;;;1.80;99.10;;;;;;5132949;27;20050;-60
2021/01/29 00:53:40;;;;;;;42.92;22.63;;;1.80;99.00;;;;;;5133556;27;20035;-60
2021/01/29 00:56:06;;;;;;;51.38;23.50;;;1.80;99.20;;;;;;5133677;27;20054;-59
2021/01/29 00:58:33;;;;;;;49.97;23.65;;;1.80;99.10;;;;;;5132852;27;20480;-60
2021/01/29 01:00:59;;;;;;;48.88;23.73;;;1.80;99.20;;;;;;5133716;27;20097;-59
2021/01/29 01:03:25;;;;;;;44.22;22.60;;;1.80;99.10;;;;;;5133594;27;20075;-59
2021/01/29 01:05:52;;;;;;;48.38;23.95;;;1.80;99.10;;;;;;5133057;27;20519;-59
2021/01/29 01:08:17;;;;;;;48.30;23.67;;;1.80;99.30;;;;;;5133958;27;20108;-60
2021/01/29 01:10:43;;;;;;;46.63;23.92;;;1.80;99.50;;;;;;5133269;27;20481;-59
2021/01/29 01:13:09;;;;;;;50.67;24.23;;;1.80;99.50;;;;;;5133069;28;20043;-60
2021/01/29 01:15:35;;;;;;;44.78;22.98;;;1.80;99.60;;;;;;5133526;27;20126;-60
2021/01/29 01:18:03;;;;;;;48.65;23.45;;;1.80;99.40;;;;;;5133500;28;20039;-59
2021/01/29 01:20:30;;;;;;;54.20;25.23;;;1.80;99.50;;;;;;5133092;27;20043;-60
2021/01/29 01:22:57;;;;;;;52.33;24.27;;;1.80;99.50;;;;;;5133493;27;20077;-59
2021/01/29 01:25:23;;;;;;;47.10;24.08;;;1.80;99.40;;;;;;5133525;27;20070;-59
2021/01/29 01:27:50;;;;;;;48.97;24.48;;;1.80;99.50;;;;;;5132987;27;20477;-60
2021/01/29 01:30:20;;;;;;;52.30;24.25;;;1.80;99.50;;;;;;5133377;27;20042;-60
2021/01/29 01:32:46;;;;;;;44.13;23.20;;;1.80;99.40;;;;;;5133311;27;20039;-60
2021/01/29 01:35:12;;;;;;;49.25;23.88;;;1.80;99.30;;;;;;5133043;27;20043;-59
2021/01/29 01:37:38;;;;;;;51.30;24.33;;;1.80;99.50;;;;;;5132978;27;20046;-59
2021/01/29 01:40:06;;;;;;;50.88;24.52;;;1.80;99.60;;;;;;5133071;27;20047;-59
2021/01/29 01:42:31;;;;;;;50.75;24.85;;;1.80;99.60;;;;;;5131817;28;20043;-59
2021/01/29 01:44:58;;;;;;;45.78;22.90;;;1.80;99.60;;;;;;5132948;28;20059;-60
2021/01/29 01:47:33;;;;;;;46.30;23.13;;;1.80;99.70;;;;;;5132662;27;20159;-59
2021/01/29 01:50:11;;;;;;;45.78;22.90;;;1.80;99.70;;;;;;5133053;27;20053;-60
2021/01/29 01:52:38;;;;;;;48.58;23.77;;;1.80;99.60;;;;;;5132773;27;20122;-59
2021/01/29 01:55:07;;;;;;;50.00;23.10;;;1.70;99.70;;;;;;5133106;27;20050;-60
2021/01/29 01:57:33;;;;;;;;;;;1.70;99.70;;;;;;5133513;27;20043;-59
2021/01/29 02:00:07;;;;;;;45.17;22.35;;;1.70;99.70;;;;;;5132753;27;19926;-59
2021/01/29 02:02:36;;;;;;;49.83;23.33;;;1.70;99.90;;;;;;5133026;27;20051;-59
2021/01/29 02:05:07;;;;;;;45.92;21.80;;;1.70;99.80;;;;;;5132687;27;20140;-59
2021/01/29 02:07:52;;;;;;;44.70;22.52;;;1.70;99.80;;;;;;5132884;27;20403;-59
2021/01/29 02:10:19;;;;;;;41.42;20.92;;;1.70;99.80;;;;;;5135919;27;20043;-60
2021/01/29 02:12:44;;;;;;;49.70;23.27;;;1.80;99.80;;;;;;5136592;27;20051;-59
2021/01/29 02:15:13;;;;;;;53.88;24.70;;;1.70;99.80;;;;;;5136877;27;20923;-59
2021/01/29 02:17:54;;;;;;;48.88;21.77;;;1.70;99.80;;;;;;5136374;27;20047;-60
2021/01/29 02:21:02;;;;;;;41.35;22.70;;;1.70;99.80;;;;;;5136545;27;20145;-60
2021/01/29 02:24:16;;;;;;;44.78;22.60;;;1.70;99.70;;;;;;5073018;28;20123;-59
2021/01/29 02:27:05;;;;;;;44.40;21.30;;;1.70;99.80;;;;;;5072913;28;20048;-60
2021/01/29 02:29:40;;;;;;;43.78;21.90;;;1.70;99.80;;;;;;5073142;28;20067;-59
2021/01/29 02:32:39;;;;;;;42.90;22.10;;;1.70;99.70;;;;;;5072757;28;20053;-60
2021/01/29 02:35:44;;;;;;;46.47;22.08;;;1.70;99.70;;;;;;5072912;28;20573;-59
2021/01/29 02:38:42;;;;;;;43.03;21.50;;;1.60;99.70;;;;;;5072882;28;20044;-59
2021/01/29 02:41:47;;;;;;;42.65;22.33;;;1.70;99.80;;;;;;5072582;28;20051;-59
2021/01/29 02:44:31;;;;;;;40.65;20.02;;;1.70;99.90;;;;;;5072805;28;20844;-59
2021/01/29 02:47:01;;;;;;;40.67;20.45;;;1.60;99.80;;;;;;5072457;28;20514;-59
2021/01/29 02:50:11;;;;;;;42.15;21.70;;;1.70;99.80;;;;;;5072623;28;20071;-58
2021/01/29 02:52:41;;;;;;;46.47;21.95;;;1.70;99.70;;;;;;5072736;28;20044;-59
2021/01/29 02:55:12;;;;;;;45.85;21.60;;;1.70;99.80;;;;;;5072483;28;20055;-58
2021/01/29 02:57:56;;;;;;;44.75;22.38;;;1.60;99.90;;;;;;5072465;28;20048;-59
2021/01/29 03:00:39;;;;;;;41.20;21.08;;;1.60;99.90;;;;;;5099955;27;20092;-59
2021/01/29 03:03:15;;;;;;;38.35;19.02;;;1.70;99.90;;;;;;5135906;27;20043;-59
2021/01/29 03:05:50;;;;;;;40.40;20.30;;;1.70;99.90;;;;;;5135236;27;20488;-59
2021/01/29 03:08:35;;;;;;;39.65;19.98;;;1.70;99.90;;;;;;5135553;27;20080;-59
2021/01/29 03:11:22;;;;;;;39.20;19.92;;;1.60;99.90;;;;;;5134283;27;20050;-59
2021/01/29 03:14:03;;;;;;;39.75;19.75;;;1.60;99.90;;;;;;5135487;27;20072;-58
2021/01/29 03:16:38;;;;;;;38.70;19.58;;;1.60;99.90;;;;;;5135223;27;20557;-59
2021/01/29 03:19:40;;;;;;;38.00;19.63;;;1.60;99.90;;;;;;5135503;27;20099;-59
2021/01/29 03:22:12;;;;;;;40.05;18.92;;;1.60;99.90;;;;;;5131307;27;20544;-59
2021/01/29 03:24:46;;;;;;;38.05;18.88;;;1.70;99.90;;;;;;5135015;27;20043;-58
2021/01/29 03:27:29;;;;;;;48.03;19.75;;;1.60;99.90;;;;;;5135441;27;20043;-59
2021/01/29 03:30:00;;;;;;;40.00;20.73;;;1.60;99.90;;;;;;5134963;27;20039;-59
2021/01/29 03:32:28;;;;;;;44.55;22.02;;;1.60;99.90;;;;;;5135359;27;20057;-60
2021/01/29 03:35:12;;;;;;;42.08;20.95;;;1.60;99.90;;;;;;5135164;27;20043;-60
2021/01/29 03:37:48;;;;;;;41.30;19.08;;;1.70;99.90;;;;;;5135376;27;20042;-59
2021/01/29 03:40:14;;;;;;;42.60;20.38;;;1.60;99.90;;;;;;5135318;27;20043;-59
2021/01/29 03:42:54;;;;;;;45.00;22.35;;;1.60;99.90;;;;;;5135274;27;20043;-59
2021/01/29 03:45:48;;;;;;;43.42;20.85;;;1.60;99.90;;;;;;5134673;27;20445;-59
2021/01/29 03:48:38;;;;;;;41.08;20.13;;;1.60;99.90;;;;;;5134893;27;20117;-59
2021/01/29 03:51:16;;;;;;;38.58;20.65;;;1.60;99.90;;;;;;5135074;27;20039;-59
2021/01/29 03:53:47;;;;;;;45.90;22.63;;;1.60;99.90;;;;;;5134862;27;20065;-58
2021/01/29 03:56:41;;;;;;;41.35;21.10;;;1.60;99.90;;;;;;5134707;27;20113;-58
2021/01/29 03:59:21;;;;;;;45.95;21.65;;;1.60;99.90;;;;;;5135044;27;20067;-59
2021/01/29 04:01:54;;;;;;;40.38;21.67;;;1.60;99.90;;;;;;5134859;27;20446;-59
2021/01/29 04:05:04;;;;;;;40.97;20.40;;;1.60;99.90;;;;;;5134417;27;20047;-59
2021/01/29 04:07:49;;;;;;;39.78;20.83;;;1.60;99.90;;;;;;5134404;27;20066;-59
2021/01/29 04:10:21;;;;;;;43.45;21.17;;;1.60;99.90;;;;;;5134470;27;20031;-59
2021/01/29 04:13:00;;;;;;;42.75;22.50;;;1.70;99.90;;;;;;5134629;27;20043;-59
2021/01/29 04:15:34;;;;;;;45.85;21.48;;;1.60;99.90;;;;;;5134320;27;20086;-59
2021/01/29 04:18:18;;;;;;;43.63;21.27;;;1.70;99.90;;;;;;5134739;27;20054;-59
2021/01/29 04:21:01;;;;;;;44.80;22.83;;;1.60;99.90;;;;;;5134669;27;20062;-60
2021/01/29 04:23:46;;;;;;;44.38;22.40;;;1.60;99.90;;;;;;5134477;27;20054;-59
2021/01/29 04:26:16;;;;;;;47.28;22.23;;;1.60;99.90;;;;;;5133998;27;20027;-60
2021/01/29 04:28:45;;;;;;;41.47;21.35;;;1.60;99.90;;;;;;5134026;27;20039;-59
2021/01/29 04:31:14;;;;;;;41.78;20.88;;;1.60;99.90;;;;;;5134147;27;20092;-59
2021/01/29 04:33:52;;;;;;;38.95;21.02;;;1.60;99.90;;;;;;5133319;27;20066;-59
2021/01/29 04:36:22;;;;;;;42.17;21.23;;;1.60;99.90;;;;;;5134259;27;20046;-59
2021/01/29 04:38:53;;;;;;;36.67;21.20;;;1.60;99.90;;;;;;5134056;27;20047;-59
2021/01/29 04:41:30;;;;;;;33.58;19.40;;;1.60;99.90;;;;;;5134049;27;20071;-58
2021/01/29 04:44:17;;;;;;;40.38;20.40;;;1.60;99.90;;;;;;5133858;27;20043;-59
2021/01/29 04:46:55;;;;;;;36.13;19.23;;;1.60;99.90;;;;;;5133717;27;20050;-59
2021/01/29 04:49:37;;;;;;;36.75;20.05;;;1.60;99.90;;;;;;5133421;27;20051;-59
2021/01/29 04:52:08;;;;;;;34.50;19.73;;;1.60;99.90;;;;;;5133305;27;20488;-59
2021/01/29 04:54:39;;;;;;;39.95;21.38;;;1.60;99.90;;;;;;5133220;27;20572;-59
2021/01/29 04:57:32;;;;;;;36.88;20.52;;;1.60;99.90;;;;;;5133235;27;20043;-60
2021/01/29 05:00:19;;;;;;;38.35;20.58;;;1.50;99.90;;;;;;5133770;27;20126;-60
2021/01/29 05:03:15;;;;;;;41.08;19.60;;;1.50;99.90;;;;;;5133888;27;20043;-59
2021/01/29 05:05:44;;;;;;;33.22;19.17;;;1.60;99.90;;;;;;5133211;27;20051;-58
2021/01/29 05:08:41;;;;;;;38.80;19.73;;;1.50;99.90;;;;;;5133639;27;20122;-59
2021/01/29 05:11:21;;;;;;;31.75;18.63;;;1.50;99.90;;;;;;5133805;27;20292;-59
2021/01/29 05:14:07;;;;;;;38.20;18.95;;;1.50;99.90;;;;;;5133744;27;20039;-59
2021/01/29 05:16:56;;;;;;;38.67;20.55;;;1.50;99.90;;;;;;5133449;27;20130;-59
2021/01/29 05:19:55;;;;;;;32.63;17.83;;;1.50;99.90;;;;;;5133831;27;20495;-60
2021/01/29 05:22:41;;;;;;;30.90;18.67;;;1.50;99.90;;;;;;5133440;27;20095;-58
2021/01/29 05:25:37;;;;;;;36.80;19.42;;;1.50;99.90;;;;;;5133105;27;20043;-59
2021/01/29 05:28:30;;;;;;;34.95;18.92;;;1.50;99.90;;;;;;5133350;27;20115;-59
2021/01/29 05:31:20;;;;;;;31.20;17.40;;;1.40;99.90;;;;;;5133697;27;20043;-60
2021/01/29 05:34:04;;;;;;;30.53;18.10;;;1.40;99.90;;;;;;5133275;28;20500;-59
2021/01/29 05:36:50;;;;;;;29.30;18.35;;;1.50;99.90;;;;;;5133543;28;20047;-59
2021/01/29 05:39:53;;;;;;;26.25;14.93;;;1.40;99.90;;;;;;5133537;28;20120;-59
2021/01/29 05:42:59;;;;;;;29.65;17.48;;;1.40;99.90;;;;;;5133302;28;20047;-59
2021/01/29 05:45:50;;;;;;;27.52;16.17;;;1.40;99.90;;;;;;5073261;28;20044;-59
2021/01/29 05:48:54;;;;;;;26.77;17.20;;;1.40;99.90;;;;;;5074009;28;20079;-59
2021/01/29 05:51:25;;;;;;;29.00;17.02;;;1.40;99.90;;;;;;5073853;28;20052;-59
2021/01/29 05:53:59;;;;;;;28.65;17.05;;;1.40;99.90;;;;;;5073664;28;20052;-59
2021/01/29 05:56:43;;;;;;;31.42;18.95;;;1.40;99.90;;;;;;5073712;28;20402;-60
2021/01/29 05:59:27;;;;;;;31.08;18.83;;;1.40;99.90;;;;;;5073703;28;20634;-58
2021/01/29 06:02:37;;;;;;;29.02;17.48;;;1.40;99.90;;;;;;5073728;28;20049;-59
2021/01/29 06:05:24;;;;;;;45.40;17.38;;;1.40;99.90;;;;;;5068619;28;20452;-59
2021/01/29 06:08:25;;;;;;;27.80;16.55;;;1.40;99.90;;;;;;5073509;28;20045;-59
2021/01/29 06:11:10;;;;;;;29.08;17.73;;;1.30;99.90;;;;;;5073493;28;20442;-59
2021/01/29 06:14:17;;;;;;;29.05;17.23;;;1.40;99.90;;;;;;5073428;28;20060;-60
2021/01/29 06:17:07;;;;;;;22.85;14.80;;;1.40;99.90;;;;;;4974731;28;20054;-59
2021/01/29 06:20:10;;;;;;;27.60;15.27;;;1.40;99.90;;;;;;4974551;28;20120;-59
2021/01/29 06:22:52;;;;;;;24.27;15.23;;;1.40;99.90;;;;;;5033550;28;20056;-59
2021/01/29 06:25:27;;;;;;;26.10;15.45;;;1.40;99.90;;;;;;5033274;28;20115;-59
2021/01/29 06:28:34;;;;;;;24.67;15.68;;;1.40;99.90;;;;;;5033554;28;20669;-59
2021/01/29 06:31:26;;;;;;;21.85;13.70;;;1.40;99.90;;;;;;5033605;28;20041;-59
2021/01/29 06:34:13;;;;;;;21.58;13.88;;;1.40;99.90;;;;;;5033118;28;20042;-59
2021/01/29 06:36:48;;;;;;;24.33;13.85;;;1.40;99.90;;;;;;5033267;28;20454;-59
2021/01/29 06:39:42;;;;;;;23.05;14.85;;;1.40;99.90;;;;;;5033238;28;20419;-59
2021/01/29 06:42:38;;;;;;;18.48;13.48;;;1.40;99.90;;;;;;5033290;28;20045;-59
2021/01/29 06:45:20;;;;;;;21.58;13.50;;;1.40;99.90;;;;;;4954961;29;20047;-59
2021/01/29 06:48:08;;;;;;;21.40;14.05;;;1.40;99.90;;;;;;4954932;29;20540;-59
2021/01/29 06:51:11;;;;;;;20.88;13.57;;;1.40;99.90;;;;;;4954909;29;20071;-59
2021/01/29 06:53:59;;;;;;;20.08;12.93;;;1.40;99.90;;;;;;5017645;28;20398;-59
2021/01/29 06:56:27;;;;;;;19.02;12.32;;;1.40;99.90;;;;;;5072248;28;20055;-59
2021/01/29 06:59:07;;;;;;;21.07;12.40;;;1.40;99.90;;;;;;5072694;28;20159;-59
2021/01/29 07:02:05;;;;;;;19.58;12.88;;;1.40;99.90;;;;;;5073133;28;20274;-60
2021/01/29 07:04:47;;;;;;;24.60;13.25;;;1.50;99.90;;;;;;5072496;28;20068;-60
2021/01/29 07:07:28;;;;;;;19.95;12.15;;;1.50;99.90;;;;;;5072806;28;20139;-59
2021/01/29 07:10:12;;;;;;;16.35;11.38;;;1.50;99.90;;;;;;5072718;28;20044;-59
2021/01/29 07:12:55;;;;;;;19.17;11.57;;;1.50;99.90;;;;;;5072707;28;20048;-59
2021/01/29 07:15:44;;;;;;;17.58;11.57;;;1.50;99.90;;;;;;5072725;28;20052;-59
2021/01/29 07:18:53;;;;;;;16.40;11.23;;;1.50;99.90;;;;;;5072692;28;20044;-59
2021/01/29 07:22:07;;;;;;;17.25;11.80;;;1.50;99.90;;;;;;5082729;28;20104;-59
2021/01/29 07:24:55;;;;;;;18.70;11.25;;;1.50;99.90;;;;;;5115469;28;20039;-58
2021/01/29 07:27:54;;;;;;;19.25;11.40;;;1.50;99.90;;;;;;5115090;27;20040;-58
2021/01/29 07:30:27;;;;;;;18.05;11.48;;;1.50;99.90;;;;;;5072249;28;20040;-58
2021/01/29 07:33:14;;;;;;;18.15;11.20;;;1.50;99.90;;;;;;5072159;28;20041;-58
2021/01/29 07:36:11;;;;;;;19.05;11.38;;;1.50;99.90;;;;;;5072218;28;20516;-58
2021/01/29 07:39:08;;;;;;;17.58;10.80;;;1.50;99.90;;;;;;5071896;28;20403;-58
2021/01/29 07:41:44;;;;;;;21.45;11.40;;;1.50;99.90;;;;;;5071998;28;20478;-58
2021/01/29 07:44:45;;;;;;;16.25;11.05;;;1.50;99.90;;;;;;5072159;28;20052;-58
2021/01/29 07:47:52;;;;;;;15.60;11.43;;;1.60;99.90;;;;;;4992597;28;20137;-58
2021/01/29 07:50:46;;;;;;;16.60;10.65;;;1.60;99.90;;;;;;4992544;28;20058;-58
2021/01/29 07:53:40;;;;;;;19.92;12.05;;;1.60;99.90;;;;;;4979189;28;20145;-58
2021/01/29 07:56:37;;;;;;;18.42;11.63;;;1.60;99.90;;;;;;4992664;28;20054;-58
2021/01/29 07:59:14;;;;;;;16.00;10.13;;;1.60;99.90;;;;;;4992475;28;20182;-58
2021/01/29 08:02:04;;;;;;;17.58;11.35;;;1.60;99.90;;;;;;4992670;28;20046;-58
2021/01/29 08:04:45;;;;;;;16.90;10.88;;;1.60;99.90;;;;;;4992278;28;20081;-58
2021/01/29 08:07:29;;;;;;;17.65;10.85;;;1.60;99.90;;;;;;5005343;28;20060;-58
2021/01/29 08:10:01;;;;;;;18.90;10.52;;;1.60;99.90;;;;;;5051763;28;20045;-58
2021/01/29 08:12:30;;;;;;;14.35;9.38;;;1.60;99.90;;;;;;5051760;28;20045;-59
2021/01/29 08:15:14;;;;;;;13.85;9.70;;;1.60;99.90;;;;;;5051696;28;20045;-59
2021/01/29 08:18:16;;;;;;;14.93;10.35;;;1.70;99.90;;;;;;5051546;28;20048;-58
2021/01/29 08:20:54;;;;;;;14.88;10.25;;;1.70;99.90;;;;;;5051623;28;20036;-59
2021/01/29 08:23:24;;;;;;;13.57;9.27;;;1.70;99.90;;;;;;5065624;28;20044;-58
2021/01/29 08:26:13;;;;;;;12.50;9.02;;;1.70;99.90;;;;;;5114516;28;20051;-58
2021/01/29 08:28:50;;;;;;;14.88;10.93;;;1.70;99.90;;;;;;5147426;27;20054;-59
2021/01/29 08:32:05;;;;;;;16.20;9.60;;;1.70;99.90;;;;;;5114477;28;20088;-59
2021/01/29 08:35:03;;;;;;;12.52;9.15;;;1.70;99.90;;;;;;5071228;28;20124;-59
2021/01/29 08:38:04;;;;;;;14.05;9.68;;;1.70;99.90;;;;;;5071523;28;20051;-59
2021/01/29 08:40:44;;;;;;;13.85;9.70;;;1.70;99.90;;;;;;4992241;28;20121;-58
2021/01/29 08:43:37;;;;;;;14.43;9.43;;;1.70;99.90;;;;;;4992157;28;20070;-59
2021/01/29 08:46:40;;;;;;;15.20;9.32;;;1.80;99.90;;;;;;4991810;28;20054;-58
2021/01/29 08:49:23;;;;;;;14.07;10.00;;;1.80;99.90;;;;;;4991783;28;20061;-59
2021/01/29 08:51:59;;;;;;;13.18;9.82;;;1.80;99.90;;;;;;4991630;28;20053;-59
2021/01/29 08:54:39;;;;;;;13.55;9.30;;;1.70;99.90;;;;;;4991780;28;20092;-59
2021/01/29 08:57:33;;;;;;;13.75;8.93;;;1.80;99.90;;;;;;4991845;28;20065;-58
2021/01/29 09:00:00;;;;;;;11.73;8.68;;;1.70;99.90;;;;;;4991803;28;20047;-59
2021/01/29 09:02:53;;;;;;;16.00;9.30;;;1.80;99.90;;;;;;4991820;28;20050;-59
2021/01/29 09:05:23;;;;;;;12.57;8.65;;;1.80;99.90;;;;;;4991152;28;20069;-59
2021/01/29 09:08:00;;;;;;;15.25;9.27;;;1.80;99.90;;;;;;4991645;28;20061;-59
2021/01/29 09:10:54;;;;;;;12.13;8.85;;;1.80;99.90;;;;;;5004674;28;20125;-59
2021/01/29 09:13:22;;;;;;;15.05;8.90;;;1.80;99.90;;;;;;5050785;28;20052;-59
2021/01/29 09:16:02;;;;;;;12.20;8.65;;;1.80;99.90;;;;;;5075554;28;20104;-59
2021/01/29 09:19:00;;;;;;;12.38;8.20;;;1.80;99.90;;;;;;5112775;28;20039;-59
2021/01/29 09:21:41;;;;;;;12.82;8.38;;;1.90;99.90;;;;;;5113438;28;20043;-59
2021/01/29 09:24:46;;;;;;;13.85;9.00;;;1.90;99.90;;;;;;5113509;28;20052;-59
2021/01/29 09:27:41;;;;;;;11.20;7.93;;;1.90;99.90;;;;;;5113661;28;20054;-59
2021/01/29 09:30:22;;;;;;;10.20;7.53;;;1.90;99.90;;;;;;5113337;28;20047;-59
2021/01/29 09:33:12;;;;;;;12.82;7.50;;;2.00;99.90;;;;;;5113533;28;20043;-59
2021/01/29 09:35:45;;;;;;;11.55;8.02;;;2.00;99.90;;;;;;5070364;28;20045;-59
2021/01/29 09:38:18;;;;;;;10.75;7.72;;;2.00;99.90;;;;;;5070312;28;20079;-59
2021/01/29 09:41:02;;;;;;;12.27;7.85;;;2.00;99.90;;;;;;5070593;28;20048;-59
2021/01/29 09:43:52;;;;;;;10.65;7.22;;;2.00;99.90;;;;;;5070603;28;20094;-59
2021/01/29 09:46:31;;;;;;;10.73;7.93;;;2.00;99.90;;;;;;5070459;28;20068;-59
2021/01/29 09:49:11;;;;;;;11.05;7.25;;;2.00;99.90;;;;;;5070293;28;20078;-59
2021/01/29 09:51:55;;;;;;;10.23;7.55;;;2.00;99.90;;;;;;5070506;28;20044;-59
2021/01/29 09:54:50;;;;;;;10.63;7.85;;;2.00;99.90;;;;;;5070591;28;20052;-59
2021/01/29 09:57:44;;;;;;;9.70;6.80;;;2.00;99.90;;;;;;5070632;28;20059;-58
2021/01/29 10:00:13;;;;;;;10.93;7.35;;;2.00;99.90;;;;;;4991099;28;20054;-59
2021/01/29 10:03:22;;;;;;;13.45;7.55;;;2.10;99.90;;;;;;4991351;28;20403;-59
2021/01/29 10:05:56;;;;;;;11.20;7.65;;;2.10;99.90;;;;;;4952267;29;20043;-59
2021/01/29 10:08:36;;;;;;;12.13;8.13;;;2.10;99.90;;;;;;4952670;29;20134;-59
2021/01/29 10:11:16;;;;;;;10.95;7.38;;;2.10;99.90;;;;;;4952507;29;20194;-59
2021/01/29 10:13:56;;;;;;;11.88;7.63;;;2.10;99.90;;;;;;5004292;28;20045;-58
2021/01/29 10:16:28;;;;;;;8.48;6.68;;;2.10;99.90;;;;;;5010636;28;20050;-59
2021/01/29 10:19:20;;;;;;;11.90;7.53;;;2.10;99.90;;;;;;4997395;28;20112;-59
2021/01/29 10:21:58;;;;;;;9.63;6.95;;;2.20;99.90;;;;;;5010709;28;20049;-58
2021/01/29 10:24:39;;;;;;;12.45;7.93;;;2.10;99.90;;;;;;5010606;28;20058;-59
2021/01/29 10:27:25;;;;;;;10.38;7.50;;;2.20;99.90;;;;;;5010407;28;20439;-58
2021/01/29 10:30:17;;;;;;;12.00;7.95;;;2.20;99.90;;;;;;5010485;28;20056;-59
2021/01/29 10:33:03;;;;;;;10.88;7.68;;;2.20;99.90;;;;;;4936272;29;20202;-58
2021/01/29 10:35:39;;;;;;;13.15;8.23;;;2.30;99.90;;;;;;4936437;29;20067;-59
2021/01/29 10:38:16;;;;;;;11.05;7.35;;;2.30;99.90;;;;;;4923761;29;20052;-59
2021/01/29 10:41:16;;;;;;;9.88;7.53;;;2.30;99.90;;;;;;4936365;29;20051;-59
2021/01/29 10:43:53;;;;;;;10.18;7.00;;;2.30;99.90;;;;;;5012371;28;20119;-59
2021/01/29 10:46:44;;;;;;;9.13;7.45;;;2.30;99.90;;;;;;5013701;28;20598;-59
2021/01/29 10:49:29;;;;;;;8.15;6.70;;;2.30;99.90;;;;;;5013662;28;20403;-59
2021/01/29 10:52:20;;;;;;;11.85;7.88;;;2.40;99.90;;;;;;5013065;28;20041;-59
2021/01/29 10:54:47;;;;;;;14.98;8.23;;;2.40;99.90;;;;;;5013159;28;20045;-59
2021/01/29 10:57:21;;;;;;;13.15;8.18;;;2.40;99.90;;;;;;5013297;28;20077;-59
2021/01/29 10:59:59;;;;;;;9.40;7.50;;;2.40;99.90;;;;;;5013377;28;20076;-58
2021/01/29 11:02:51;;;;;;;12.32;8.75;;;2.40;99.90;;;;;;5013395;28;20420;-59
2021/01/29 11:05:24;;;;;;;13.88;7.90;;;2.40;99.90;;;;;;5013428;28;20054;-58
2021/01/29 11:07:53;;;;;;;12.23;7.97;;;2.40;99.90;;;;;;5013573;28;20092;-59
2021/01/29 11:10:22;;;;;;;12.70;8.55;;;2.50;99.90;;;;;;5113465;27;20047;-59
2021/01/29 11:13:02;;;;;;;12.20;7.80;;;2.50;99.90;;;;;;5135619;27;20530;-59
2021/01/29 11:16:01;;;;;;;10.47;7.20;;;2.50;99.90;;;;;;5134748;27;20047;-59
2021/01/29 11:18:35;;;;;;;13.02;9.07;;;2.60;99.90;;;;;;5136424;27;20130;-59
2021/01/29 11:21:03;;;;;;;11.00;7.68;;;2.60;99.90;;;;;;5136326;27;20043;-58
2021/01/29 11:23:51;;;;;;;9.85;7.03;;;2.60;99.90;;;;;;5134733;27;20054;-59
2021/01/29 11:26:27;;;;;;;10.70;7.57;;;2.60;99.90;;;;;;5136131;27;20085;-59
2021/01/29 11:29:05;;;;;;;11.18;7.72;;;2.60;99.90;;;;;;5136146;27;20038;-58
2021/01/29 11:31:45;;;;;;;11.60;8.18;;;2.60;99.90;;;;;;5136335;27;20039;-58
2021/01/29 11:34:23;;;;;;;9.23;7.22;;;2.60;99.90;;;;;;5135966;27;20491;-59
2021/01/29 11:37:09;;;;;;;10.65;7.25;;;2.60;99.90;;;;;;5135777;27;20543;-59
2021/01/29 11:39:54;;;;;;;8.95;6.88;;;2.70;99.90;;;;;;5136032;27;20447;-58
2021/01/29 11:42:49;;;;;;;9.73;6.57;;;2.70;99.90;;;;;;5135408;27;20066;-59
2021/01/29 11:45:26;;;;;;;9.70;7.38;;;2.80;99.90;;;;;;5135527;27;20511;-59
2021/01/29 11:47:58;;;;;;;10.15;7.18;;;2.80;99.90;;;;;;5135468;27;20046;-59
2021/01/29 11:50:41;;;;;;;9.13;7.15;;;2.90;99.90;;;;;;5135682;27;20079;-59
2021/01/29 11:53:24;;;;;;;11.13;7.20;;;2.90;99.90;;;;;;5135731;27;20096;-59
2021/01/29 11:55:57;;;;;;;11.75;7.40;;;3.00;99.90;;;;;;5135337;27;20047;-59
2021/01/29 11:58:55;;;;;;;10.00;7.65;;;3.00;99.90;;;;;;5135323;27;20031;-59
2021/01/29 12:01:32;;;;;;;12.45;8.60;;;3.00;99.90;;;;;;5135380;27;20051;-59
2021/01/29 12:04:09;;;;;;;12.40;7.75;;;3.00;99.90;;;;;;5135200;27;20039;-59
2021/01/29 12:06:47;;;;;;;12.50;8.20;;;3.00;99.90;;;;;;5134803;27;20051;-59
2021/01/29 12:09:39;;;;;;;15.30;8.30;;;3.10;99.90;;;;;;5135416;27;20035;-59
2021/01/29 12:12:09;;;;;;;11.02;7.10;;;3.10;99.90;;;;;;5135423;27;20149;-59
2021/01/29 12:15:09;;;;;;;12.75;7.68;;;3.20;99.90;;;;;;5134968;27;20444;-59
2021/01/29 12:17:36;;;;;;;12.45;7.90;;;3.10;99.90;;;;;;5135228;27;20043;-59
2021/01/29 12:20:18;;;;;;;9.55;7.15;;;3.10;99.90;;;;;;5135118;27;20046;-59
2021/01/29 12:23:00;;;;;;;12.15;7.70;;;3.20;99.90;;;;;;5135094;27;20046;-59
2021/01/29 12:25:42;;;;;;;11.55;7.78;;;3.20;99.90;;;;;;5135166;27;20054;-59
2021/01/29 12:28:29;;;;;;;11.15;7.85;;;3.20;99.90;;;;;;5134992;27;20046;-59
2021/01/29 12:31:26;;;;;;;12.52;8.30;;;3.30;99.90;;;;;;5134722;27;20126;-59
2021/01/29 12:34:02;;;;;;;9.98;7.28;;;3.30;99.90;;;;;;5070561;28;20036;-59
2021/01/29 12:36:33;;;;;;;8.30;6.72;;;3.30;99.90;;;;;;5071268;28;20048;-59
2021/01/29 12:39:03;;;;;;;13.10;8.70;;;3.40;99.90;;;;;;5071091;28;20051;-59
2021/01/29 12:41:56;;;;;;;11.80;7.38;;;3.40;99.90;;;;;;5071235;28;20114;-59
2021/01/29 12:44:46;;;;;;;12.60;8.23;;;3.40;99.90;;;;;;5071145;28;20453;-59
2021/01/29 12:47:50;;;;;;;17.90;8.60;;;3.50;99.90;;;;;;5071177;28;20117;-59
2021/01/29 12:50:37;;;;;;;21.63;10.40;;;3.50;99.90;;;;;;5011340;28;20053;-59
2021/01/29 12:53:17;;;;;;;19.00;9.38;;;3.60;99.90;;;;;;5010852;28;20095;-59
2021/01/29 12:56:05;;;;;;;35.17;9.82;;;3.70;99.90;;;;;;5011413;28;20462;-59
2021/01/29 12:58:38;;;;;;;27.55;9.75;;;3.90;99.90;;;;;;5011430;28;20064;-59
2021/01/29 13:01:07;;;;;;;88.82;15.68;;;3.90;99.90;;;;;;5011250;28;20046;-59
2021/01/29 13:03:49;;;;;;;76.85;16.77;;;4.70;99.90;;;;;;5011023;28;20049;-59
2021/01/29 13:06:34;;;;;;;65.90;14.63;;;5.10;99.90;;;;;;5010975;28;20050;-59
2021/01/29 13:09:32;;;;;;;89.93;17.67;;;5.50;99.90;;;;;;5011266;28;20046;-59
2021/01/29 13:12:26;;;;;;;79.30;15.13;;;5.80;99.90;;;;;;5073827;28;20080;-59
2021/01/29 13:15:22;;;;;;;82.03;16.08;;;6.00;99.90;;;;;;5091029;28;20134;-59
2021/01/29 13:18:03;;;;;;;54.90;12.55;;;6.10;99.90;;;;;;5090785;28;20046;-59
2021/01/29 13:20:37;;;;;;;65.82;14.18;;;6.10;99.90;;;;;;5091054;28;20044;-59
2021/01/29 13:23:23;;;;;;;82.00;14.88;;;6.20;99.90;;;;;;5091056;28;20604;-59
2021/01/29 13:25:59;;;;;;;70.63;12.27;;;6.30;99.90;;;;;;5090891;28;20048;-59
2021/01/29 13:28:27;;;;;;;65.78;11.65;;;6.30;99.90;;;;;;5133895;27;20047;-60
2021/01/29 13:30:52;;;;;;;81.38;11.93;;;6.30;99.90;;;;;;5134343;27;20092;-59
2021/01/29 13:33:29;;;;;;;60.70;11.40;;;6.30;99.90;;;;;;5133679;27;20422;-58
2021/01/29 13:36:08;;;;;;;56.22;10.35;;;6.40;99.90;;;;;;5133952;27;20054;-60
2021/01/29 13:38:38;;;;;;;63.90;11.43;;;6.50;99.90;;;;;;5134182;27;20091;-60
2021/01/29 13:41:15;;;;;;;61.20;10.40;;;6.50;99.90;;;;;;5133961;27;20081;-60
2021/01/29 13:43:43;;;;;;;56.45;9.95;;;6.50;99.90;;;;;;5133790;27;20054;-59
2021/01/29 13:46:24;;;;;;;51.60;10.13;;;6.60;99.90;;;;;;5133699;27;20047;-59
2021/01/29 13:49:14;;;;;;;50.17;9.25;;;6.60;99.90;;;;;;5134257;27;20047;-60
2021/01/29 13:51:41;;;;;;;71.57;9.75;;;6.70;99.90;;;;;;5133923;27;20745;-59